createdAt,value
2022-11-18T00:03:32.921Z,8.75
2022-11-18T00:08:39.115Z,11.06
2022-11-18T00:13:45.195Z,8.90
2022-11-18T00:18:51.400Z,9.67
2022-11-18T00:23:57.495Z,9.78
2022-11-18T00:29:03.714Z,12.59
2022-11-18T00:34:09.804Z,9.01
2022-11-18T00:39:16.461Z,10.74
2022-11-18T00:44:21.758Z,10.61
2022-11-18T00:49:27.937Z,10.10
2022-11-18T00:54:34.017Z,10.55
2022-11-18T00:59:40.424Z,10.72
2022-11-18T01:04:46.536Z,10.66
2022-11-18T01:09:52.740Z,9.76
2022-11-18T01:14:59.013Z,11.10
2022-11-18T01:20:05.521Z,10.65
2022-11-18T01:25:11.604Z,10.27
2022-11-18T01:30:17.923Z,10.61
2022-11-18T01:35:24.011Z,9.91
2022-11-18T01:40:30.212Z,11.76
2022-11-18T01:45:36.317Z,12.44
2022-11-18T01:50:42.507Z,12.17
2022-11-18T01:55:48.577Z,12.56
2022-11-18T02:00:55.075Z,11.86
2022-11-18T02:06:01.109Z,12.86
2022-11-18T02:11:07.328Z,11.50
2022-11-18T02:16:13.511Z,11.94
2022-11-18T02:21:19.665Z,12.62
2022-11-18T02:26:25.747Z,12.65
2022-11-18T02:31:32.222Z,11.82
2022-11-18T02:36:38.345Z,11.07
2022-11-18T02:41:44.545Z,12.25
2022-11-18T02:46:50.621Z,10.14
2022-11-18T02:51:56.791Z,10.21
2022-11-18T02:57:03.664Z,12.14
2022-11-18T03:02:10.213Z,12.89
2022-11-18T03:07:16.370Z,11.78
2022-11-18T03:12:22.470Z,11.35
2022-11-18T03:17:28.548Z,11.91
2022-11-18T03:22:34.771Z,9.57
2022-11-18T03:27:40.874Z,11.69
2022-11-18T03:32:47.110Z,8.71
2022-11-18T03:37:53.196Z,10.08
2022-11-18T03:42:59.483Z,7.88
2022-11-18T03:48:05.553Z,8.63
2022-11-18T03:53:11.769Z,8.17
2022-11-18T03:58:17.878Z,8.75
2022-11-18T04:03:24.016Z,9.23
2022-11-18T04:08:30.126Z,8.42
2022-11-18T04:13:36.309Z,8.98
2022-11-18T04:18:42.849Z,10.07
2022-11-18T04:23:49.060Z,12.18
2022-11-18T04:28:55.133Z,13.91
2022-11-18T04:34:01.328Z,12.89
2022-11-18T04:39:07.393Z,12.64
2022-11-18T04:44:13.720Z,14.58
2022-11-18T04:49:20.109Z,13.86
2022-11-18T04:54:26.477Z,15.57
2022-11-18T04:59:32.920Z,17.66
2022-11-18T05:04:39.075Z,18.34
2022-11-18T05:09:45.496Z,19.69
2022-11-18T05:14:52.063Z,18.61
2022-11-18T05:19:58.157Z,22.01
2022-11-18T05:25:04.398Z,20.60
2022-11-18T05:30:10.564Z,21.43
2022-11-18T05:35:16.749Z,22.32
2022-11-18T05:40:22.816Z,20.33
2022-11-18T05:45:29.063Z,20.06
2022-11-18T05:50:35.076Z,20.99
2022-11-18T05:55:41.722Z,20.81
2022-11-18T06:00:47.863Z,19.46
2022-11-18T06:05:54.103Z,21.15
2022-11-18T06:11:00.211Z,21.69
2022-11-18T06:16:06.773Z,22.76
2022-11-18T06:21:13.206Z,21.36
2022-11-18T06:26:19.492Z,21.05
2022-11-18T06:31:25.634Z,20.55
2022-11-18T06:36:32.156Z,21.49
2022-11-18T06:41:38.254Z,21.62
2022-11-18T06:46:44.780Z,19.93
2022-11-18T06:51:50.851Z,22.40
2022-11-18T06:56:57.074Z,21.83
2022-11-18T07:02:03.156Z,20.80
2022-11-18T07:07:09.453Z,23.10
2022-11-18T07:12:15.424Z,22.90
2022-11-18T07:17:21.650Z,22.88
2022-11-18T07:22:27.729Z,22.54
2022-11-18T07:27:33.914Z,22.64
2022-11-18T07:32:40.082Z,22.75
2022-11-18T07:37:46.248Z,25.46
2022-11-18T07:42:52.714Z,22.13
2022-11-18T07:47:58.961Z,21.27
2022-11-18T07:53:05.071Z,22.54
2022-11-18T07:58:11.337Z,20.68
2022-11-18T08:03:17.448Z,22.84
2022-11-18T08:08:23.644Z,23.22
2022-11-18T08:13:30.118Z,24.74
2022-11-18T08:18:36.316Z,22.22
2022-11-18T08:23:42.930Z,28.27
2022-11-18T08:28:48.324Z,23.75
2022-11-18T08:33:54.339Z,22.08
2022-11-18T08:39:00.583Z,23.07
2022-11-18T08:44:06.716Z,22.86
2022-11-18T08:49:12.955Z,25.46
2022-11-18T08:54:19.080Z,22.00
2022-11-18T08:59:25.321Z,23.82
2022-11-18T09:04:31.430Z,25.84
2022-11-18T09:09:37.614Z,26.68
2022-11-18T09:15:13.814Z,26.75
2022-11-18T09:19:49.525Z,25.96
2022-11-18T09:24:55.612Z,26.30
2022-11-18T09:30:01.824Z,26.05
2022-11-18T09:35:07.959Z,27.07
2022-11-18T09:40:14.289Z,27.98
2022-11-18T09:45:24.306Z,28.11
2022-11-18T09:50:48.484Z,29.92
2022-11-18T09:55:32.090Z,28.83
2022-11-18T10:00:38.762Z,31.09
2022-11-18T10:05:44.885Z,27.62
2022-11-18T10:10:51.156Z,30.94
2022-11-18T10:15:57.638Z,32.38
2022-11-18T10:21:03.910Z,34.35
2022-11-18T10:26:10.020Z,36.50
2022-11-18T10:31:16.257Z,35.14
2022-11-18T10:36:22.362Z,35.12
2022-11-18T10:41:28.778Z,33.63
2022-11-18T10:46:34.917Z,34.32
2022-11-18T10:51:41.163Z,34.04
2022-11-18T10:56:47.275Z,34.64
2022-11-18T11:01:53.573Z,33.28
2022-11-18T11:06:59.692Z,32.02
2022-11-18T11:12:05.919Z,32.01
2022-11-18T11:17:12.125Z,31.74
2022-11-18T11:22:18.642Z,32.97
2022-11-18T11:32:30.414Z,30.64
2022-11-18T11:37:36.476Z,28.15
2022-11-18T11:42:42.630Z,27.42
2022-11-18T11:47:48.693Z,26.84
2022-11-18T11:52:54.851Z,25.43
2022-11-18T11:58:00.955Z,26.25
2022-11-18T12:03:07.980Z,25.17
2022-11-18T12:08:14.030Z,24.77
2022-11-18T12:13:20.960Z,25.44
2022-11-18T12:18:27.018Z,24.70
2022-11-18T12:23:33.186Z,24.12
2022-11-18T12:28:39.260Z,23.01
2022-11-18T12:33:45.404Z,21.93
2022-11-18T12:38:51.482Z,23.84
2022-11-18T12:43:57.989Z,22.97
2022-11-18T12:49:04.048Z,22.58
2022-11-18T12:54:13.821Z,21.95
2022-11-18T12:59:16.517Z,21.32
2022-11-18T13:04:21.859Z,20.61
2022-11-18T13:09:27.911Z,22.53
2022-11-18T13:14:34.064Z,21.71
2022-11-18T13:19:40.124Z,23.00
2022-11-18T13:24:46.304Z,20.54
2022-11-18T13:29:54.244Z,22.76
2022-11-18T13:34:58.071Z,23.32
2022-11-18T13:40:04.108Z,23.36
2022-11-18T13:45:10.269Z,24.50
2022-11-18T13:50:16.346Z,23.70
2022-11-18T13:55:22.505Z,25.72
2022-11-18T14:00:29.406Z,26.00
2022-11-18T14:05:35.555Z,23.12
2022-11-18T14:10:41.654Z,24.99
2022-11-18T14:15:47.887Z,25.52
2022-11-18T14:20:54.826Z,26.56
2022-11-18T14:26:01.424Z,28.57
2022-11-18T14:31:07.850Z,25.03
2022-11-18T14:36:14.008Z,26.31
2022-11-18T14:41:20.106Z,26.38
2022-11-18T14:46:26.366Z,27.15
2022-11-18T14:51:32.443Z,24.84
2022-11-18T14:56:38.680Z,27.59
2022-11-18T15:01:45.102Z,27.28
2022-11-18T15:06:51.522Z,25.69
2022-11-18T15:11:57.579Z,28.47
2022-11-18T15:17:03.793Z,30.70
2022-11-18T15:22:09.863Z,28.65
2022-11-18T15:27:16.095Z,28.60
2022-11-18T15:32:22.237Z,26.32
2022-11-18T15:37:28.457Z,29.24
2022-11-18T15:42:40.109Z,27.55
2022-11-18T15:47:40.543Z,26.88
2022-11-18T15:52:46.638Z,27.58
2022-11-18T15:57:52.836Z,24.78
2022-11-18T16:02:58.988Z,24.96
2022-11-18T16:08:05.154Z,25.49
2022-11-18T16:13:11.223Z,21.87
2022-11-18T16:18:17.464Z,22.03
2022-11-18T16:23:23.530Z,20.02
2022-11-18T16:28:29.827Z,20.66
2022-11-18T16:33:35.874Z,20.92
2022-11-18T16:38:42.098Z,22.63
2022-11-18T16:43:48.587Z,17.82
2022-11-18T16:48:55.196Z,18.49
2022-11-18T16:54:01.283Z,19.30
2022-11-18T16:59:07.575Z,16.44
2022-11-18T17:04:13.702Z,16.87
2022-11-18T17:09:20.065Z,16.41
2022-11-18T17:14:26.012Z,14.05
2022-11-18T17:19:32.602Z,13.10
2022-11-18T17:24:38.733Z,11.35
2022-11-18T17:29:45.422Z,9.83
2022-11-18T17:34:51.840Z,9.72
2022-11-18T17:39:58.067Z,8.94
2022-11-18T17:45:04.102Z,9.27
2022-11-18T17:50:10.411Z,9.93
2022-11-18T17:55:16.858Z,10.61
2022-11-18T18:00:23.047Z,8.25
2022-11-18T18:05:29.117Z,8.42
2022-11-18T18:10:35.399Z,7.14
2022-11-18T18:15:41.566Z,8.03
2022-11-18T18:20:47.802Z,7.47
2022-11-18T18:25:53.943Z,7.27
2022-11-18T18:31:00.131Z,7.49
2022-11-18T18:36:06.292Z,7.43
2022-11-18T18:41:12.584Z,6.83
2022-11-18T18:46:18.703Z,7.28
2022-11-18T18:51:24.875Z,6.45
2022-11-18T18:56:31.001Z,6.42
2022-11-18T19:01:37.308Z,6.21
2022-11-18T19:06:58.177Z,6.03
2022-11-18T19:11:49.121Z,5.53
2022-11-18T19:16:55.257Z,6.85
2022-11-18T19:22:01.504Z,6.35
2022-11-18T19:27:07.556Z,5.78
2022-11-18T19:32:13.703Z,5.70
2022-11-18T19:37:19.757Z,5.79
2022-11-18T19:42:25.944Z,6.08
2022-11-18T19:47:32.108Z,6.93
2022-11-18T19:52:38.244Z,5.83
2022-11-18T19:57:44.311Z,6.08
2022-11-18T20:02:50.519Z,6.48
2022-11-18T20:07:56.573Z,6.20
2022-11-18T20:13:02.808Z,5.55
2022-11-18T20:18:08.863Z,6.12
2022-11-18T20:23:15.201Z,5.57
2022-11-18T20:28:21.243Z,5.29
2022-11-18T20:33:27.426Z,5.79
2022-11-18T20:38:33.476Z,5.83
2022-11-18T20:43:39.618Z,6.38
2022-11-18T20:48:45.971Z,5.90
2022-11-18T20:53:52.133Z,6.48
2022-11-18T20:58:58.206Z,7.30
2022-11-18T21:04:04.374Z,6.97
2022-11-18T21:09:10.815Z,7.09
2022-11-18T21:14:21.863Z,7.09
2022-11-18T21:19:22.687Z,7.34
2022-11-18T21:24:28.756Z,7.67
2022-11-18T21:29:34.832Z,6.86
2022-11-18T21:34:41.319Z,7.08
2022-11-18T21:39:47.509Z,7.19
2022-11-18T21:44:53.809Z,7.62
2022-11-18T21:50:00.229Z,7.34
2022-11-18T21:55:06.501Z,7.86
2022-11-18T22:00:12.578Z,7.30
2022-11-18T22:05:18.903Z,9.07
2022-11-18T22:10:24.955Z,8.69
2022-11-18T22:15:31.195Z,7.71
2022-11-18T22:20:37.264Z,10.56
2022-11-18T22:25:43.443Z,9.18
2022-11-18T22:30:49.506Z,8.56
2022-11-18T22:35:56.044Z,9.17
2022-11-18T22:41:02.198Z,7.96
2022-11-18T22:46:08.386Z,9.07
2022-11-18T22:51:14.444Z,8.75
2022-11-18T22:56:20.702Z,8.65
2022-11-18T23:01:26.804Z,8.86
2022-11-18T23:06:33.014Z,10.16
2022-11-18T23:11:39.106Z,9.44
2022-11-18T23:16:45.306Z,8.97
2022-11-18T23:21:51.466Z,9.70
2022-11-18T23:26:57.649Z,8.89
2022-11-18T23:32:03.744Z,9.28
2022-11-18T23:37:09.927Z,10.92
2022-11-18T23:42:16.001Z,9.16
2022-11-18T23:47:22.259Z,9.16
2022-11-18T23:52:28.439Z,9.98
2022-11-18T23:57:34.762Z,8.93
